CheckWX is a tool to help pilots better visualize weather data.  It is not intended as a substitute for an official pre-flight weather briefing.

08:10:51 UTC

EDDG METAR
Münster Osnabrück Airport
Münster, Germany
Current

21 mins ago

EDDG 220750Z VRB02KT 1800 BR BKN004 BKN030 08/08 Q1034 BECMG SCT004
Observed
Feb-22 @ 07:50 UTC
Wind
  • Variable at 2 KTS
Visibility
1,802 meters
Flight Rules
LIFR
Conditions
Mist
Cloud Levels
  • Broken at 400' AGL
  • Broken at 3,000' AGL
Temperature
C / 46°F
Dewpoint
C / 46°F
Humidity
100%
Altimeter
30.53" Hg
Pressure
1033.91 hPa
Previous

51 mins ago

EDDG 220720Z 28003KT 250V310 2000 BR SCT003 BKN030 08/08 Q1034 TEMPO BKN003
Observed
Feb-22 @ 07:20 UTC
Wind
  • 280° at 3 KTS
Visibility
1,996 meters
Flight Rules
IFR
Conditions
Mist
Cloud Levels
  • Scattered at 300' AGL
  • Broken at 3,000' AGL
Temperature
C / 46°F
Dewpoint
C / 46°F
Humidity
100%
Altimeter
30.53" Hg
Pressure
1033.91 hPa
Previous

1 hour ago

EDDG 220650Z 29002KT 1600 BR BKN006 BKN030 08/08 Q1034 BECMG SCT006
Observed
Feb-22 @ 06:50 UTC
Wind
  • 290° at 2 KTS
Visibility
1,593 meters
Flight Rules
LIFR
Conditions
Mist
Cloud Levels
  • Broken at 600' AGL
  • Broken at 3,000' AGL
Temperature
C / 46°F
Dewpoint
C / 46°F
Humidity
100%
Altimeter
30.53" Hg
Pressure
1033.91 hPa